Time;durP1;ratioP1;P1;durP2;ratioP2;P2;SDS_P1;SDS_P2;PMS_P1;PMS_P2;Temp;Humidity;BMP_temperature;BMP_pressure;BME280_temperature;BME280_humidity;BME280_pressure;Samples;Min_cycle;Max_cycle;Signal;HPM_P1;HPM_P2
2023/10/17 00:01:50;;;;;;;7.50;3.15;;;;;;;13.41;50.79;100303.28;5053666;28;20202;-38
2023/10/17 00:06:41;;;;;;;5.65;3.35;;;;;;;13.39;50.73;100298.13;5053740;28;20376;-39
2023/10/17 00:09:07;;;;;;;6.75;3.20;;;;;;;13.26;50.93;100296.25;5053547;28;20032;-38
2023/10/17 00:11:44;;;;;;;6.60;3.03;;;;;;;13.19;50.73;100298.13;5053593;28;20415;-37
2023/10/17 00:14:11;;;;;;;5.70;3.20;;;;;;;13.01;51.26;100293.41;5053730;28;20032;-39
2023/10/17 00:16:37;;;;;;;5.55;3.30;;;;;;;12.97;51.68;100294.03;5053556;28;20032;-39
2023/10/17 00:19:09;;;;;;;5.13;3.30;;;;;;;13.02;51.53;100295.06;5052866;28;20030;-38
2023/10/17 00:21:39;;;;;;;5.38;3.22;;;;;;;13.00;52.04;100288.28;5049179;28;20094;-39
2023/10/17 00:24:09;;;;;;;5.65;2.90;;;;;;;13.14;51.33;100287.25;5033229;28;20458;-39
2023/10/17 00:26:43;;;;;;;4.38;3.10;;;;;;;13.26;51.06;100279.41;5033661;28;20076;-40
2023/10/17 00:29:09;;;;;;;4.97;3.10;;;;;;;13.27;51.01;100278.41;5045431;28;20434;-39
2023/10/17 00:31:36;;;;;;;4.00;3.05;;;;;;;13.24;50.89;100284.16;5054364;28;20048;-38
2023/10/17 00:34:15;;;;;;;5.18;3.30;;;;;;;13.29;50.79;100287.03;5052954;28;20340;-39
2023/10/17 00:36:48;;;;;;;6.70;3.10;;;;;;;13.09;51.93;100276.34;5052861;28;20047;-37
2023/10/17 00:39:31;;;;;;;7.78;3.67;;;;;;;13.29;50.67;100282.50;5053297;28;20086;-38
2023/10/17 00:44:31;;;;;;;6.78;3.20;;;;;;;13.18;51.14;100282.31;5053405;28;20033;-40
2023/10/17 00:46:58;;;;;;;5.07;3.20;;;;;;;13.07;51.19;100273.88;5052766;28;20033;-40
2023/10/17 00:49:29;;;;;;;5.88;3.40;;;;;;;13.04;52.15;100284.16;5053278;28;20025;-37
2023/10/17 00:51:59;;;;;;;5.53;3.45;;;;;;;12.87;51.81;100281.06;5052866;28;20105;-39
2023/10/17 00:54:25;;;;;;;;;;;;;;;13.00;51.60;100280.25;5053065;28;20657;-39
2023/10/17 00:56:56;;;;;;;4.25;3.10;;;;;;;12.72;51.91;100278.63;5053018;28;19939;-39
2023/10/17 00:59:31;;;;;;;8.23;3.53;;;;;;;12.68;51.98;100285.41;5052696;28;20036;-39
2023/10/17 01:01:57;;;;;;;6.93;3.72;;;;;;;12.78;52.11;100272.47;5052901;28;20032;-39
2023/10/17 01:04:24;;;;;;;5.35;3.35;;;;;;;12.65;52.21;100275.13;5052532;28;20182;-39
2023/10/17 01:07:05;;;;;;;4.65;3.40;;;;;;;12.60;52.36;100270.38;5053671;28;20030;-38
2023/10/17 01:09:34;;;;;;;5.80;3.60;;;;;;;12.80;51.61;100277.59;5053111;28;20080;-39
2023/10/17 01:12:01;;;;;;;8.88;3.38;;;;;;;12.71;52.15;100277.78;5052979;28;20419;-41
2023/10/17 01:14:27;;;;;;;9.20;3.50;;;;;;;12.62;52.66;100267.50;5053373;28;20063;-38
2023/10/17 01:16:53;;;;;;;6.22;3.50;;;;;;;12.82;52.32;100272.88;5052763;28;20035;-39
2023/10/17 01:19:21;;;;;;;6.10;3.70;;;;;;;12.78;52.30;100283.13;5052976;28;20032;-39
2023/10/17 01:21:49;;;;;;;9.35;3.60;;;;;;;12.69;52.50;100276.34;5052671;28;20112;-39
2023/10/17 01:24:16;;;;;;;7.55;3.85;;;;;;;12.67;52.14;100281.06;5052811;28;20060;-39
2023/10/17 01:26:47;;;;;;;8.15;3.22;;;;;;;12.79;52.08;100275.94;5052822;28;20029;-38
2023/10/17 01:29:13;;;;;;;5.55;3.13;;;;;;;12.77;52.52;100262.78;5052841;28;20107;-39
2023/10/17 01:31:44;;;;;;;5.65;3.55;;;;;;;12.80;52.38;100274.94;5052808;28;20116;-38
2023/10/17 01:34:11;;;;;;;5.82;3.22;;;;;;;12.61;52.30;100266.69;5052809;28;20063;-39
2023/10/17 01:36:37;;;;;;;4.25;3.10;;;;;;;12.66;51.80;100276.75;5052683;28;20108;-40
2023/10/17 01:39:08;;;;;;;4.68;3.30;;;;;;;12.44;52.38;100273.44;5052462;28;20092;-39
2023/10/17 01:41:34;;;;;;;5.15;3.28;;;;;;;12.13;53.39;100272.16;5052852;28;20104;-39
2023/10/17 01:44:01;;;;;;;8.25;3.50;;;;;;;12.27;52.99;100271.16;5052218;28;20410;-39
2023/10/17 01:46:28;;;;;;;6.18;3.38;;;;;;;12.47;52.50;100273.88;5052600;28;20086;-40
2023/10/17 01:48:55;;;;;;;6.20;3.10;;;;;;;12.46;53.05;100274.88;5052413;28;20048;-41
2023/10/17 01:51:22;;;;;;;6.45;3.53;;;;;;;12.65;52.46;100283.94;5052194;28;20499;-40
2023/10/17 01:53:51;;;;;;;6.07;3.50;;;;;;;12.58;52.60;100275.09;5052037;28;20410;-39
2023/10/17 01:56:18;;;;;;;7.00;3.60;;;;;;;12.51;52.66;100275.09;5052414;28;20040;-39
2023/10/17 01:58:55;;;;;;;5.40;3.45;;;;;;;12.49;52.60;100269.16;5052502;28;20072;-38
2023/10/17 02:01:26;;;;;;;7.53;3.90;;;;;;;12.28;52.34;100275.47;5051928;28;20029;-38
2023/10/17 02:04:02;;;;;;;7.38;4.18;;;;;;;12.17;51.72;100283.25;5052026;28;20079;-38
2023/10/17 02:06:28;;;;;;;6.50;3.83;;;;;;;12.01;52.27;100277.22;5052410;28;20033;-39
2023/10/17 02:08:55;;;;;;;12.65;3.90;;;;;;;11.82;52.21;100281.44;5052121;28;20033;-40
2023/10/17 02:11:23;;;;;;;12.30;4.03;;;;;;;11.85;52.08;100275.69;5051894;28;20025;-40
2023/10/17 02:13:56;;;;;;;14.07;4.35;;;;;;;11.88;52.61;100293.97;5051645;28;20035;-40
2023/10/17 02:16:28;;;;;;;13.18;4.00;;;;;;;12.08;51.79;100286.06;5051086;28;20029;-39
2023/10/17 02:18:58;;;;;;;10.98;4.70;;;;;;;11.85;52.20;100290.88;5050924;28;20126;-39
2023/10/17 02:21:24;;;;;;;9.65;4.03;;;;;;;11.80;52.82;100287.97;5051104;28;20115;-40
2023/10/17 02:23:50;;;;;;;10.13;4.00;;;;;;;11.82;52.35;100299.25;5050817;28;20040;-39
2023/10/17 02:26:21;;;;;;;8.23;3.92;;;;;;;11.85;52.29;100298.88;5051801;28;20033;-39
2023/10/17 02:28:50;;;;;;;8.35;4.00;;;;;;;11.89;52.86;100298.31;5051706;28;20113;-40
2023/10/17 02:31:16;;;;;;;10.65;4.22;;;;;;;11.79;52.68;100295.16;5051638;28;20097;-40
2023/10/17 02:33:43;;;;;;;9.65;3.80;;;;;;;11.73;51.78;100301.28;5051320;28;20029;-40
2023/10/17 02:36:16;;;;;;;7.40;4.05;;;;;;;11.72;51.99;100300.44;5051365;28;20021;-38
2023/10/17 02:38:43;;;;;;;12.55;4.15;;;;;;;11.80;51.90;100303.97;5050953;28;20063;-39
2023/10/17 02:41:12;;;;;;;9.15;3.88;;;;;;;11.79;53.75;100307.69;5049995;28;20459;-38
2023/10/17 02:43:40;;;;;;;8.52;3.85;;;;;;;11.71;52.65;100304.16;5051480;28;20021;-38
2023/10/17 02:46:08;;;;;;;7.05;3.80;;;;;;;11.79;51.29;100307.69;5051323;28;20048;-39
2023/10/17 02:48:38;;;;;;;8.90;4.10;;;;;;;11.96;51.57;100303.69;5051312;28;20017;-39
2023/10/17 02:51:03;;;;;;;;;;;;;;;12.05;50.89;100304.31;5051687;28;20067;-40
2023/10/17 02:53:34;;;;;;;8.23;3.67;;;;;;;11.90;50.13;100307.97;5050969;28;19958;-40
2023/10/17 02:56:18;;;;;;;10.50;3.70;;;;;;;11.84;50.77;100305.22;5051240;28;20029;-40
2023/10/17 02:58:48;;;;;;;5.82;3.90;;;;;;;11.70;49.88;100302.50;5050924;28;20091;-39
2023/10/17 03:01:13;;;;;;;;;;;;;;;11.89;48.47;100300.97;5051363;28;20021;-40
2023/10/17 03:03:39;;;;;;;8.82;3.78;;;;;;;11.84;49.99;100298.06;5050585;28;19913;-40
2023/10/17 03:06:05;;;;;;;10.85;4.47;;;;;;;11.81;48.73;100293.13;5050795;28;20472;-40
2023/10/17 03:08:36;;;;;;;10.23;3.70;;;;;;;11.63;49.43;100293.66;5032730;28;20508;-40
2023/10/17 03:11:02;;;;;;;9.98;4.32;;;;;;;11.58;49.40;100290.75;5030891;28;20100;-40
2023/10/17 03:13:40;;;;;;;8.15;4.53;;;;;;;11.57;49.31;100283.75;5031082;28;20529;-38
2023/10/17 03:16:26;;;;;;;8.57;3.90;;;;;;;11.53;49.88;100282.50;5030918;28;20022;-39
2023/10/17 03:18:52;;;;;;;9.73;3.70;;;;;;;11.54;49.83;100278.84;5031009;28;20044;-39
2023/10/17 03:21:30;;;;;;;7.88;3.28;;;;;;;11.49;49.53;100274.09;5030419;28;20026;-39
2023/10/17 03:24:00;;;;;;;10.10;3.75;;;;;;;11.55;48.30;100278.63;5029132;28;20025;-38
2023/10/17 03:26:25;;;;;;;6.57;3.47;;;;;;;11.66;47.50;100273.75;5030054;28;20328;-38
2023/10/17 03:28:51;;;;;;;8.07;3.80;;;;;;;11.60;48.44;100270.03;5030092;28;20108;-39
2023/10/17 03:31:22;;;;;;;7.82;3.30;;;;;;;11.62;48.90;100277.84;5030183;28;20105;-38
2023/10/17 03:33:51;;;;;;;7.68;3.90;;;;;;;11.53;48.36;100277.19;5046109;28;20021;-38
2023/10/17 03:39:21;;;;;;;7.30;3.90;;;;;;;11.48;48.13;100260.94;5050399;28;20060;-40
2023/10/17 03:41:48;;;;;;;8.88;3.40;;;;;;;11.49;46.95;100273.25;5049761;28;20036;-38
2023/10/17 03:44:15;;;;;;;7.20;3.20;;;;;;;11.42;44.98;100278.53;5049888;28;20029;-38
2023/10/17 03:46:48;;;;;;;6.72;3.10;;;;;;;11.41;45.53;100282.25;5049982;28;20086;-38
2023/10/17 03:49:18;;;;;;;7.93;3.28;;;;;;;11.37;46.06;100282.84;5049804;28;20108;-38
2023/10/17 03:51:46;;;;;;;;;;;;;;;11.67;45.02;100278.91;5049826;28;20025;-42
2023/10/17 03:54:17;;;;;;;9.18;3.28;;;;;;;11.56;43.84;100276.78;5049946;28;19918;-43
2023/10/17 03:56:47;;;;;;;8.35;3.67;;;;;;;11.40;45.99;100274.44;5049976;28;20028;-44
2023/10/17 04:01:39;;;;;;;11.20;3.85;;;;;;;11.55;45.53;100267.13;5050257;28;20029;-44
2023/10/17 04:04:05;;;;;;;8.40;3.90;;;;;;;11.23;46.15;100269.44;5050104;28;20140;-45
2023/10/17 04:06:40;;;;;;;8.23;4.10;;;;;;;11.02;45.99;100250.81;5049687;28;20452;-44
2023/10/17 04:11:49;;;;;;;6.32;3.67;;;;;;;11.22;46.92;100278.44;5049256;28;20032;-43
2023/10/17 04:14:17;;;;;;;13.75;3.50;;;;;;;11.27;46.98;100281.34;5049745;28;20103;-44
2023/10/17 04:16:44;;;;;;;11.55;4.05;;;;;;;11.13;47.15;100276.91;5050084;28;20029;-45
2023/10/17 04:19:20;;;;;;;14.93;5.72;;;;;;;11.30;52.23;100275.59;5050224;28;20033;-44
2023/10/17 04:21:51;;;;;;;15.35;5.00;;;;;;;11.35;47.47;100275.84;5051199;28;20025;-43
2023/10/17 04:24:28;;;;;;;11.23;4.80;;;;;;;11.03;47.45;100281.78;5050521;28;20048;-44
2023/10/17 04:27:07;;;;;;;10.95;4.90;;;;;;;10.80;47.89;100282.81;5050545;28;20146;-45
2023/10/17 04:29:33;;;;;;;9.85;4.40;;;;;;;10.95;47.65;100286.22;5051096;28;20036;-43
2023/10/17 04:32:01;;;;;;;10.88;4.60;;;;;;;10.85;47.41;100290.22;5048770;28;20151;-43
2023/10/17 04:34:28;;;;;;;14.88;5.55;;;;;;;10.99;47.69;100296.50;5050434;28;20033;-44
2023/10/17 04:36:56;;;;;;;10.48;5.30;;;;;;;10.80;47.97;100298.78;5050299;28;20053;-45
2023/10/17 04:39:35;;;;;;;18.27;5.25;;;;;;;10.95;48.46;100304.84;5052848;28;20034;-43
2023/10/17 04:44:38;;;;;;;12.23;5.05;;;;;;;10.76;48.54;100295.69;5053965;28;20029;-42
2023/10/17 04:47:25;;;;;;;10.70;4.93;;;;;;;10.81;48.15;100297.75;5054311;28;20028;-44
2023/10/17 04:49:52;;;;;;;18.67;5.63;;;;;;;10.98;47.82;100286.84;5053741;28;20166;-43
2023/10/17 04:52:50;;;;;;;18.10;6.40;;;;;;;10.92;47.91;100289.25;5049374;28;20408;-42
2023/10/17 04:55:18;;;;;;;18.65;6.18;;;;;;;10.96;47.93;100292.38;5052795;28;20208;-44
2023/10/17 05:00:25;;;;;;;15.65;5.60;;;;;;;11.05;47.34;100299.19;5054062;28;20051;-44
2023/10/17 05:05:45;;;;;;;10.75;4.80;;;;;;;11.59;46.41;100307.56;5053664;28;20060;-42
2023/10/17 05:08:11;;;;;;;18.42;5.85;;;;;;;11.64;45.82;100310.47;5050628;28;20025;-44
2023/10/17 06:18:59;;;;;;;11.85;4.93;;;;;;;19.67;32.41;100343.94;5032053;28;20036;-48
2023/10/17 06:21:39;;;;;;;8.90;4.07;;;;;;;19.98;31.55;100352.47;5031212;28;20079;-48
2023/10/17 06:34:47;;;;;;;11.10;4.13;;;;;;;21.56;29.15;100344.25;5051785;28;20036;-42
2023/10/17 06:37:19;;;;;;;10.85;4.93;;;;;;;21.65;28.90;100346.19;5051729;28;20049;-45
2023/10/17 06:39:49;;;;;;;13.60;6.03;;;;;;;20.86;30.33;100353.16;5051871;28;20035;-44
2023/10/17 06:42:15;;;;;;;14.30;5.00;;;;;;;21.22;30.00;100347.25;5051764;28;20052;-42
2023/10/17 06:44:53;;;;;;;14.38;4.57;;;;;;;21.47;29.45;100343.91;5051742;28;20032;-43
2023/10/17 06:47:21;;;;;;;8.52;4.10;;;;;;;21.26;29.92;100349.16;5051346;28;20027;-42
2023/10/17 06:50:04;;;;;;;14.03;4.20;;;;;;;21.66;29.27;100350.53;5051380;28;20112;-43
2023/10/17 06:55:43;;;;;;;14.45;4.68;;;;;;;22.00;28.96;100362.91;5051607;28;20029;-42
2023/10/17 06:58:14;;;;;;;12.73;4.70;;;;;;;22.12;28.91;100358.06;5051375;28;20508;-43
2023/10/17 07:00:53;;;;;;;13.30;4.82;;;;;;;22.44;28.47;100355.19;5051135;28;20084;-42
2023/10/17 07:03:26;;;;;;;8.65;4.75;;;;;;;22.42;28.18;100345.72;5051373;28;20494;-43
2023/10/17 07:05:54;;;;;;;13.43;5.43;;;;;;;22.09;28.45;100352.38;5051239;28;20021;-43
2023/10/17 07:08:20;;;;;;;13.80;5.30;;;;;;;22.60;27.60;100347.94;5051360;28;20480;-41
2023/10/17 07:10:59;;;;;;;15.23;5.25;;;;;;;22.60;27.69;100345.22;5051215;28;20032;-43
2023/10/17 07:24:33;;;;;;;11.45;4.43;;;;;;;22.45;28.21;100359.56;5050919;28;20077;-40
2023/10/17 07:26:59;;;;;;;15.38;4.40;;;;;;;22.14;28.75;100361.34;5051084;28;20021;-42
2023/10/17 07:29:24;;;;;;;13.95;4.85;;;;;;;21.62;29.37;100362.97;5051055;28;20024;-42
2023/10/17 07:31:52;;;;;;;14.48;5.18;;;;;;;21.02;30.32;100353.31;5050475;28;20027;-43
2023/10/17 07:34:22;;;;;;;12.50;4.57;;;;;;;21.22;30.16;100353.47;5050804;28;20021;-41
2023/10/17 07:36:58;;;;;;;10.23;4.60;;;;;;;21.46;29.95;100355.84;5050756;28;20031;-42
2023/10/17 07:39:59;;;;;;;14.38;4.82;;;;;;;21.46;29.99;100353.13;5050909;28;20064;-42
2023/10/17 07:42:29;;;;;;;11.70;4.75;;;;;;;20.80;30.25;100353.41;5050467;28;20045;-43
2023/10/17 07:44:57;;;;;;;9.45;5.05;;;;;;;20.98;30.34;100347.63;5051088;28;20017;-42
2023/10/17 07:47:33;;;;;;;20.00;5.57;;;;;;;20.72;30.66;100338.44;5050649;28;20024;-43
2023/10/17 07:49:59;;;;;;;12.05;6.60;;;;;;;21.00;30.91;100336.50;5050575;28;20503;-40
2023/10/17 07:52:26;;;;;;;16.35;9.35;;;;;;;21.45;29.95;100335.25;5051140;28;20028;-44
2023/10/17 07:54:55;;;;;;;13.15;4.80;;;;;;;21.52;29.89;100313.38;5050757;28;20033;-42
2023/10/17 07:57:40;;;;;;;11.52;5.10;;;;;;;20.99;30.85;100321.38;5050586;28;20059;-45
2023/10/17 08:00:24;;;;;;;9.90;4.65;;;;;;;21.05;30.67;100323.84;5050193;28;20025;-44
2023/10/17 08:02:51;;;;;;;13.00;4.50;;;;;;;20.30;31.43;100334.47;5050630;28;20075;-40
2023/10/17 08:05:23;;;;;;;16.67;6.57;;;;;;;20.41;31.84;100312.97;5050360;28;20407;-42
2023/10/17 08:07:49;;;;;;;18.27;10.45;;;;;;;20.88;31.75;100306.94;5050356;28;20109;-43
2023/10/17 08:10:29;;;;;;;9.57;4.43;;;;;;;20.45;31.79;100314.91;5050465;28;20025;-44
2023/10/17 08:12:59;;;;;;;7.18;3.92;;;;;;;19.76;33.26;100326.25;5052172;28;20017;-42
2023/10/17 08:15:34;;;;;;;16.10;9.55;;;;;;;20.87;31.83;100316.13;5054455;28;20033;-41
2023/10/17 08:18:00;;;;;;;15.73;4.00;;;;;;;20.72;31.79;100313.31;5054659;28;20051;-41
2023/10/17 08:23:09;;;;;;;9.00;3.20;;;;;;;21.53;31.05;100304.97;5054268;28;20075;-42
2023/10/17 08:25:52;;;;;;;8.32;3.10;;;;;;;21.19;31.28;100289.06;5053949;28;20021;-44
2023/10/17 08:31:24;;;;;;;7.30;3.05;;;;;;;20.65;31.91;100295.38;5030824;28;20497;-44
2023/10/17 08:36:48;;;;;;;7.88;2.97;;;;;;;20.62;32.41;100282.41;5054106;28;20036;-43
2023/10/17 08:41:57;;;;;;;4.88;3.20;;;;;;;20.16;33.17;100283.78;5053821;28;20401;-47
2023/10/17 08:44:31;;;;;;;6.45;3.28;;;;;;;20.01;34.08;100279.88;5054089;28;20029;-44
2023/10/17 08:46:57;;;;;;;4.10;2.70;;;;;;;20.60;32.66;100281.00;5053899;28;20029;-44
2023/10/17 08:49:23;;;;;;;5.07;2.90;;;;;;;19.84;34.07;100287.22;5054283;28;20025;-42
2023/10/17 08:51:49;;;;;;;4.53;2.70;;;;;;;19.37;36.38;100288.47;5050375;28;20050;-41
2023/10/17 08:54:18;;;;;;;8.63;3.20;;;;;;;18.89;35.68;100271.03;5051142;28;20032;-42
2023/10/17 08:56:51;;;;;;;5.43;3.13;;;;;;;18.52;35.66;100261.53;5053228;28;20029;-40
2023/10/17 09:00:23;;;;;;;9.77;3.40;;;;;;;18.29;36.52;100259.75;5053321;28;20108;-39
2023/10/17 09:02:43;;;;;;;7.85;3.33;;;;;;;18.70;36.28;100268.53;5047488;28;20068;-40
2023/10/17 09:05:47;;;;;;;5.60;3.60;;;;;;;18.93;35.93;100278.38;5049486;28;20381;-39
2023/10/17 09:08:11;;;;;;;8.20;3.50;;;;;;;18.85;35.74;100262.63;5050018;28;20041;-39
2023/10/17 09:10:37;;;;;;;4.97;3.30;;;;;;;18.26;37.26;100254.00;5052661;28;20104;-40
2023/10/17 09:15:50;;;;;;;7.10;3.05;;;;;;;18.52;36.65;100248.03;5050522;28;20063;-40
2023/10/17 09:18:22;;;;;;;6.22;2.90;;;;;;;18.41;37.08;100246.22;5052676;28;20515;-39
2023/10/17 09:20:50;;;;;;;6.13;2.83;;;;;;;18.93;36.66;100253.28;5051114;28;20028;-41
2023/10/17 09:23:27;;;;;;;5.63;2.70;;;;;;;18.08;37.46;100237.00;5052771;28;20112;-40
2023/10/17 09:25:56;;;;;;;8.43;2.90;;;;;;;17.93;38.05;100234.03;5050405;28;20078;-40
2023/10/17 09:28:25;;;;;;;4.32;2.88;;;;;;;17.43;39.09;100221.16;5052946;28;20120;-42
2023/10/17 09:31:15;;;;;;;7.57;2.70;;;;;;;18.46;37.35;100215.84;5053155;28;20396;-41
2023/10/17 09:33:50;;;;;;;4.95;2.78;;;;;;;19.05;36.50;100218.13;5053328;28;20029;-39
2023/10/17 09:36:19;;;;;;;5.35;2.78;;;;;;;18.89;36.54;100223.31;5052918;28;20033;-41
2023/10/17 09:38:46;;;;;;;5.65;2.70;;;;;;;18.07;37.77;100205.75;5049894;28;20538;-42
2023/10/17 09:41:17;;;;;;;7.28;2.92;;;;;;;18.06;37.94;100214.88;5052812;28;20503;-42
2023/10/17 09:43:43;;;;;;;7.63;3.15;;;;;;;18.40;37.95;100203.34;5052596;28;20032;-41
2023/10/17 09:46:12;;;;;;;6.30;2.97;;;;;;;19.07;36.35;100206.03;5052460;28;20033;-39
2023/10/17 09:48:43;;;;;;;10.87;3.07;;;;;;;19.31;35.89;100217.41;5052395;28;20047;-39
2023/10/17 09:51:20;;;;;;;4.80;2.90;;;;;;;17.88;37.97;100204.34;5052688;28;20045;-40
2023/10/17 09:53:51;;;;;;;3.42;2.63;;;;;;;17.00;39.88;100196.28;5051130;28;20037;-40
2023/10/17 09:56:21;;;;;;;5.05;2.60;;;;;;;16.95;39.95;100207.75;5052568;28;20372;-39
2023/10/17 09:58:50;;;;;;;6.20;2.70;;;;;;;17.75;38.43;100202.72;5050621;28;20025;-39
2023/10/17 10:01:20;;;;;;;4.10;2.38;;;;;;;17.54;38.44;100186.16;5051241;28;20044;-39
2023/10/17 10:03:51;;;;;;;8.60;3.53;;;;;;;17.95;38.25;100180.75;5052232;28;20036;-41
2023/10/17 10:06:21;;;;;;;3.92;2.83;;;;;;;17.96;38.12;100177.00;5052642;28;20029;-42
2023/10/17 10:08:47;;;;;;;7.53;2.70;;;;;;;17.93;38.04;100161.34;5052534;28;20044;-42
2023/10/17 10:11:12;;;;;;;4.75;2.38;;;;;;;17.65;38.56;100162.97;5052393;28;20024;-41
2023/10/17 10:14:01;;;;;;;4.32;2.50;;;;;;;17.48;39.09;100157.50;5052383;28;20032;-43
2023/10/17 10:16:55;;;;;;;4.03;2.45;;;;;;;17.98;38.35;100148.78;5052167;28;20174;-40
2023/10/17 10:19:21;;;;;;;6.20;2.70;;;;;;;18.15;37.84;100143.41;5052608;28;20160;-39
2023/10/17 10:21:58;;;;;;;7.80;2.80;;;;;;;18.30;37.96;100134.78;5051948;28;20029;-42
2023/10/17 10:24:26;;;;;;;6.22;2.75;;;;;;;18.16;37.81;100128.06;5051988;28;20103;-41
2023/10/17 10:27:15;;;;;;;7.45;2.58;;;;;;;18.32;37.59;100131.84;5052440;28;20028;-40
2023/10/17 10:29:52;;;;;;;4.97;2.80;;;;;;;18.25;37.53;100107.75;5045687;28;20041;-39
2023/10/17 10:32:38;;;;;;;6.50;2.55;;;;;;;18.88;36.71;100121.09;5051843;28;20033;-43
2023/10/17 10:35:05;;;;;;;10.27;2.83;;;;;;;19.17;36.53;100110.13;5051481;28;20500;-41
2023/10/17 10:37:54;;;;;;;8.30;2.78;;;;;;;19.67;35.45;100093.69;5051763;28;20124;-40
2023/10/17 10:40:26;;;;;;;3.58;2.30;;;;;;;19.72;35.22;100099.19;5051447;28;20029;-41
2023/10/17 10:42:53;;;;;;;5.70;2.50;;;;;;;19.42;35.47;100093.41;5051594;28;20033;-40
2023/10/17 10:45:25;;;;;;;4.93;2.67;;;;;;;19.47;35.42;100094.28;5051860;28;20096;-41
2023/10/17 10:47:58;;;;;;;3.55;2.45;;;;;;;18.81;36.34;100101.56;5051961;28;20051;-41
2023/10/17 10:50:31;;;;;;;6.90;2.30;;;;;;;19.17;36.10;100102.84;5051792;28;20029;-40
2023/10/17 10:53:00;;;;;;;7.18;2.60;;;;;;;19.29;36.24;100094.63;5052175;28;20024;-38
2023/10/17 10:55:26;;;;;;;6.40;2.80;;;;;;;19.91;34.83;100085.28;5051493;28;20112;-40
2023/10/17 10:57:53;;;;;;;5.18;2.58;;;;;;;19.31;35.63;100085.22;5051206;28;20454;-39
2023/10/17 11:00:18;;;;;;;3.28;2.25;;;;;;;19.35;35.89;100080.13;5051471;28;20036;-41
2023/10/17 11:02:43;;;;;;;6.38;2.97;;;;;;;19.85;35.12;100087.13;5051674;28;20017;-40
2023/10/17 11:05:13;;;;;;;4.82;2.35;;;;;;;20.13;34.48;100076.28;5051589;28;20032;-39
2023/10/17 11:07:39;;;;;;;4.53;2.40;;;;;;;20.18;34.60;100069.03;5051430;28;20207;-38
2023/10/17 11:10:10;;;;;;;3.95;2.40;;;;;;;20.18;34.84;100070.91;5051384;28;20109;-40
2023/10/17 11:12:37;;;;;;;3.55;2.30;;;;;;;20.35;34.48;100068.06;5051357;28;20108;-41
2023/10/17 11:15:26;;;;;;;5.22;2.38;;;;;;;20.56;33.98;100071.69;5051558;28;20492;-41
2023/10/17 11:17:59;;;;;;;6.82;2.30;;;;;;;20.66;34.04;100066.41;5051701;28;20025;-40
2023/10/17 11:20:26;;;;;;;3.25;2.03;;;;;;;20.83;33.84;100063.50;5051331;28;20506;-41
2023/10/17 11:22:52;;;;;;;3.10;2.10;;;;;;;20.88;34.15;100063.50;5051311;28;20025;-39
2023/10/17 11:25:27;;;;;;;5.53;2.35;;;;;;;21.42;33.26;100046.09;5050963;28;20025;-41
2023/10/17 11:27:56;;;;;;;3.80;2.15;;;;;;;21.47;32.96;100046.13;5051243;28;20076;-40
2023/10/17 11:30:32;;;;;;;3.35;2.10;;;;;;;21.86;32.38;100041.00;5050797;28;20481;-39
2023/10/17 11:33:05;;;;;;;4.68;2.30;;;;;;;21.83;32.17;100044.25;5050505;28;20086;-40
2023/10/17 11:35:37;;;;;;;5.10;2.22;;;;;;;21.68;32.37;100036.13;5050369;28;20107;-39
2023/10/17 11:38:03;;;;;;;6.97;1.90;;;;;;;22.00;32.05;100040.47;5050878;28;20045;-40
2023/10/17 11:40:30;;;;;;;4.20;2.20;;;;;;;22.20;32.00;100036.91;5051456;28;20048;-39
2023/10/17 11:42:59;;;;;;;4.13;1.98;;;;;;;22.19;31.57;100033.41;5051083;28;20033;-39
2023/10/17 11:45:33;;;;;;;4.68;2.30;;;;;;;22.16;31.17;100030.41;5050859;28;20021;-41
2023/10/17 11:48:14;;;;;;;7.93;2.58;;;;;;;22.03;31.49;100019.06;5050801;28;20033;-42
2023/10/17 11:50:39;;;;;;;6.07;2.65;;;;;;;22.18;31.67;100029.06;5050849;28;20075;-39
2023/10/17 11:53:12;;;;;;;7.50;3.10;;;;;;;21.36;32.70;100017.38;5050705;28;20454;-39
2023/10/17 11:55:45;;;;;;;10.35;3.20;;;;;;;21.67;32.64;100023.69;5050642;28;20051;-40
2023/10/17 11:58:20;;;;;;;9.32;5.15;;;;;;;21.92;32.05;100019.34;5050681;28;20507;-39
2023/10/17 12:00:47;;;;;;;7.30;4.40;;;;;;;22.34;31.48;100015.50;5050546;28;20032;-39
2023/10/17 12:03:12;;;;;;;6.85;4.72;;;;;;;22.34;31.14;100012.81;5050932;28;20092;-38
2023/10/17 12:05:44;;;;;;;4.28;2.80;;;;;;;22.34;31.35;100018.22;5050783;28;20025;-38
2023/10/17 12:08:10;;;;;;;5.13;2.80;;;;;;;22.16;31.46;100011.44;5050795;28;20028;-39
2023/10/17 12:10:42;;;;;;;5.13;3.33;;;;;;;21.78;32.01;99998.22;5051283;28;20385;-39
2023/10/17 12:13:10;;;;;;;7.22;4.10;;;;;;;21.21;32.50;99989.22;5050343;28;20036;-41
2023/10/17 12:15:37;;;;;;;7.53;2.50;;;;;;;21.52;32.02;99985.78;5050664;28;20028;-40
2023/10/17 12:18:03;;;;;;;4.75;2.65;;;;;;;21.09;32.91;99981.38;5050625;28;20492;-41
2023/10/17 12:20:29;;;;;;;7.63;3.83;;;;;;;21.58;32.14;99990.09;5050237;28;20049;-42
2023/10/17 12:22:59;;;;;;;6.03;3.13;;;;;;;21.73;32.13;99989.28;5050318;28;20556;-40
2023/10/17 12:25:25;;;;;;;4.82;2.55;;;;;;;22.10;31.74;99991.66;5050774;28;20033;-39
2023/10/17 12:27:56;;;;;;;7.15;2.22;;;;;;;21.63;32.34;99982.00;5050423;28;20397;-41
2023/10/17 12:30:28;;;;;;;3.53;2.22;;;;;;;21.63;32.26;99979.28;5050817;28;20094;-40
2023/10/17 12:32:57;;;;;;;10.52;2.60;;;;;;;21.90;31.83;99983.59;5050234;28;20031;-42
2023/10/17 12:35:23;;;;;;;8.00;2.50;;;;;;;21.73;32.40;99976.56;5050511;28;20120;-39
2023/10/17 12:37:52;;;;;;;7.97;3.30;;;;;;;21.83;32.73;99973.81;5050148;28;20049;-39
2023/10/17 12:40:23;;;;;;;;;;;;;;;22.25;31.64;99966.47;5051170;28;20039;-41
2023/10/17 12:42:51;;;;;;;7.10;2.20;;;;;;;22.29;31.54;99966.72;5050339;28;19956;-41
2023/10/17 12:45:17;;;;;;;3.75;2.30;;;;;;;22.03;32.26;99961.34;5050520;28;20025;-40
2023/10/17 12:47:44;;;;;;;5.55;2.42;;;;;;;22.14;31.80;99964.84;5050352;28;20071;-40
2023/10/17 12:50:12;;;;;;;8.05;2.83;;;;;;;22.22;31.39;99961.59;5050598;28;20128;-40
2023/10/17 12:52:38;;;;;;;7.45;2.55;;;;;;;22.29;31.32;99958.59;5050525;28;20515;-41
2023/10/17 12:55:05;;;;;;;8.68;2.50;;;;;;;22.35;31.71;99957.50;5050209;28;20058;-40
2023/10/17 12:57:31;;;;;;;4.45;2.35;;;;;;;22.10;31.78;99961.84;5050069;28;20057;-42
2023/10/17 12:59:59;;;;;;;10.48;2.80;;;;;;;22.29;31.58;99958.59;5052322;28;20051;-39
2023/10/17 13:02:27;;;;;;;3.42;2.35;;;;;;;22.54;31.58;99949.56;5053718;28;20311;-42
2023/10/17 13:04:53;;;;;;;3.30;2.30;;;;;;;22.67;31.03;99961.72;5053995;28;20393;-39
2023/10/17 13:07:20;;;;;;;7.47;2.40;;;;;;;22.65;30.62;99957.34;5053589;28;20260;-40
2023/10/17 13:09:45;;;;;;;5.78;2.60;;;;;;;22.49;30.73;99960.44;5054136;28;20082;-40
2023/10/17 13:12:10;;;;;;;7.57;2.45;;;;;;;22.40;30.67;99950.16;5053698;28;20017;-39
2023/10/17 13:14:36;;;;;;;3.47;2.20;;;;;;;22.30;30.97;99955.63;5053528;28;20472;-42
2023/10/17 13:17:01;;;;;;;4.97;2.20;;;;;;;22.32;30.59;99958.88;5053545;28;20101;-40
2023/10/17 13:19:29;;;;;;;3.67;2.47;;;;;;;22.39;31.00;99951.25;5053655;28;20051;-40
2023/10/17 13:21:54;;;;;;;4.10;2.25;;;;;;;22.42;31.00;99958.81;5053584;28;20025;-40
2023/10/17 13:24:19;;;;;;;5.85;2.40;;;;;;;22.44;31.28;99953.13;5053237;28;20078;-41
2023/10/17 13:26:45;;;;;;;4.70;2.70;;;;;;;22.32;31.30;99950.72;5053480;28;20027;-41
2023/10/17 13:29:12;;;;;;;5.75;2.60;;;;;;;22.41;30.91;99945.56;5053515;28;20021;-40
2023/10/17 13:31:37;;;;;;;5.45;2.30;;;;;;;22.37;30.82;99945.31;5053394;28;20044;-40
2023/10/17 13:34:04;;;;;;;3.65;2.33;;;;;;;22.34;31.05;99950.47;5052924;28;20496;-41
2023/10/17 13:36:29;;;;;;;10.13;2.40;;;;;;;22.28;31.12;99944.25;5053397;28;20104;-41
2023/10/17 13:38:55;;;;;;;7.80;2.20;;;;;;;22.35;31.38;99941.22;5053584;28;20049;-39
2023/10/17 13:41:21;;;;;;;5.05;2.55;;;;;;;22.37;31.28;99948.00;5053152;28;20021;-42
2023/10/17 13:43:47;;;;;;;6.85;2.22;;;;;;;22.20;31.27;99950.19;5053020;28;20108;-40
2023/10/17 13:46:16;;;;;;;6.10;2.40;;;;;;;22.21;31.33;99946.41;5052901;28;20051;-42
2023/10/17 13:48:48;;;;;;;8.35;3.30;;;;;;;22.29;31.32;99947.75;5053813;28;20082;-40
2023/10/17 13:51:15;;;;;;;10.50;3.65;;;;;;;22.26;31.57;99949.13;5053565;28;20056;-41